Sandnessjøen, Norge

23:12:CEST den 02. september 2014 (GMT +0200)
Stokka | Change Station
CLOSE
Current Station
Flyplass
Location: Sandnessjoen,
Høyde over havet: 56 ft
Nearby Weather Stations

H.o.h 56 ft 65.96 °N, 12.47 °E | Updated 1 hour ago

Light Drizzle
Lett duskregn
55 °F
Feels Like 55 °F
N
17
Vind Variabel Vind from Sør

I dag
High -- | Low -- °F
--% Chance of Precip.
I går
High -- | Low -- °F
Precip. -- tommer
5:48 AM 8:29 PM
Første kvarter, 55% visible
Lufttrykk 30.06 tommer
Sikt 6.2 eng. mil
Skyet Few 500 ft
Sporadisk skyet 800 ft
For det meste skyet 2000 ft
Duggpunkt 54 °F
Fuktighet 94%
Regn 0.00 tommer
Snødybde Not available.
UV 0 av 12
Pollen Not available.
Luftkvalitet Not available.
Flu Activity Not available.
METAR ENST 021950Z 19015KT 9999 -DZRA FEW005 SCT008 BKN020 13/12 Q1018 RMK WIND 300FT 20020KT

More Conditions Fewer Conditions

Lufttrykk 30.06 tommer
Sikt 6.2 eng. mil
Skyet Few 500 ft
Sporadisk skyet 800 ft
For det meste skyet 2000 ft
Duggpunkt 54 °F
Fuktighet 94%
Regn 0.00 tommer
Snødybde Not available.
UV 0 av 12
Pollen Not available.
Luftkvalitet Not available.
Flu Activity Not available.
METAR ENST 021950Z 19015KT 9999 -DZRA FEW005 SCT008 BKN020 13/12 Q1018 RMK WIND 300FT 20020KT

More Conditions Fewer Conditions

10-Day Weather Forecast

Almanac

Astronomi

Sep. 02, 2014 Oppgang Nedgang
Virkelig tid 05:48 CEST 20:29 CEST
Tussmørke 04:49 CEST 21:26 CEST
Nautisk skumring 03:25 CEST 22:49 CEST
Astronomisk skumring 01:42 CEST 00:37 CEST
Månen 16:18 CEST 22:04 CEST
Lengde av synlig lys 16h 36m
Dagens lengde
14h 41m
Tomorrow will be 7m 8s shorter.
Første kvarter, 55% of the Moon is Illuminated
I dag
Første kvarter
Sep 8
Fullmåne
Sep 15
Siste kvarter
Sep 24
Ny
Oct 1
Første kvarter

Dagens maks og min

Country Highs Country Lows

Community

WunderPhotos

Upload Photos

1,749,769 photos uploaded!

Nearby

Snødybde

Not available.

Earthquake Activity

By Distance Mag. Time & Date
No recent earthquake activity has been reported nearby.
Minimum magnitude displayed is 2.5.

Coastal Water Temperatures

Sted Temperatur
Ingen stasjoner raporterer

Nearby Weather Stations